Strona główna
METAR-TAF:

METAR-TAF

Lotnisko :

Port lotniczy Osijek

Osijek, Chorwacja

Szerokość geograficzna: 45-27N, Długość geograficzna: 018-48E, wysokość: 88 m

Aktualna obserwacja pogody

Raport powstał 25 minut temu, godzina 05:00 UTC
Wiatr 2 kt od zachód
Temperatura 2°C
Wilgotność 64%
Ciśnienie 1023 hPa
Widzialność 10 km lub więcej
Brak chmur poniżej 1500 m i brak chmur cumulonimbus

METAR: LDOS 090500Z 28002KT CAVOK 02/M04 Q1023

czas: 07:25 (05:25 UTC)

Prognoza

Raport powstał 6 godziny i 0 minut temu, godzina 23:25 UTC
Prognoza ważna od 09 godzina 00 UTC do 10 godzina 00 UTC
Wiatr 5 kt od wschodnio-południowy wschód
Widzialność 10 km lub więcej
Brak chmur poniżej 1500 m i brak chmur cumulonimbus

TAF: LDOS 082325Z 0900/1000 11005KT CAVOK TX23/0914Z TN02/0905Z

Obserwacja i prognoza pogody dla ponad 4000 lotnisk (raport METAR i TAF).

Dostępne stacje oznaczono żółtymi i czerwonymi punktami na mapie.

Najedź kursorem aby zobaczyć nazwę stacji.

Kliknij aby zobaczyć obserwacje i prognozy pogody.

Aby zmienić mapę: kliknij na zielony przycisk z czarnym krzyżykiem, aby powiększyć; na zielony przycisk z myślnikiem, aby pomniejszyć; na zielone strzałki, aby przejść do map sąsiednich.


METAR-TAF: